Time;durP1;ratioP1;P1;durP2;ratioP2;P2;SDS_P1;SDS_P2;PMS_P1;PMS_P2;Temp;Humidity;BMP_temperature;BMP_pressure;BME280_temperature;BME280_humidity;BME280_pressure;Samples;Min_cycle;Max_cycle;Signal;HPM_P1;HPM_P2
2021/05/29 00:01:18;;;;;;;5.17;3.70;;;;;;;16.08;52.75;95210.16;5060362;28;20877;-69
2021/05/29 00:03:46;;;;;;;4.17;3.77;;;;;;;16.29;52.26;95210.72;5071240;28;20487;-69
2021/05/29 00:06:14;;;;;;;5.83;3.23;;;;;;;16.19;52.83;95211.59;5057394;28;20530;-68
2021/05/29 00:08:41;;;;;;;5.03;3.40;;;;;;;16.24;52.28;95209.69;5058454;28;20877;-69
2021/05/29 00:11:09;;;;;;;5.33;3.90;;;;;;;16.06;53.14;95201.72;5058791;28;20467;-70
2021/05/29 00:13:37;;;;;;;5.17;3.73;;;;;;;16.06;52.84;95202.50;5050988;28;20471;-70
2021/05/29 00:16:04;;;;;;;4.47;3.57;;;;;;;16.14;52.69;95206.38;5063429;28;20449;-68
2021/05/29 00:18:31;;;;;;;4.87;3.60;;;;;;;16.13;52.40;95202.94;5069974;28;20883;-68
2021/05/29 00:20:58;;;;;;;7.23;3.30;;;;;;;16.32;51.87;95208.28;5061345;28;20980;-69
2021/05/29 00:23:25;;;;;;;5.20;3.67;;;;;;;16.06;52.30;95197.22;5051160;28;20987;-69
2021/05/29 00:25:52;;;;;;;7.47;3.63;;;;;;;16.14;52.60;95209.03;5060052;28;20457;-68
2021/05/29 00:28:19;;;;;;;3.50;3.20;;;;;;;16.14;52.51;95211.66;5056925;28;20478;-70
2021/05/29 00:30:46;;;;;;;6.60;3.57;;;;;;;15.93;53.10;95205.81;5070458;28;20584;-70
2021/05/29 00:33:13;;;;;;;5.70;3.80;;;;;;;15.91;52.62;95204.53;5058459;28;20550;-69
2021/05/29 00:35:41;;;;;;;4.63;3.37;;;;;;;16.14;52.45;95203.75;5055971;28;20982;-70
2021/05/29 00:38:08;;;;;;;4.90;3.40;;;;;;;16.08;52.11;95196.94;5070586;28;20450;-69
2021/05/29 00:40:36;;;;;;;4.23;3.47;;;;;;;15.82;52.73;95185.06;5058067;28;20442;-68
2021/05/29 00:43:04;;;;;;;4.60;3.97;;;;;;;16.04;51.86;95202.00;5070639;28;20457;-69
2021/05/29 00:45:33;;;;;;;4.60;3.70;;;;;;;16.02;51.54;95200.72;5071216;28;20426;-68
2021/05/29 00:48:01;;;;;;;7.57;3.70;;;;;;;16.27;51.98;95196.97;5059544;28;20515;-69
2021/05/29 00:50:29;;;;;;;5.57;3.53;;;;;;;15.92;51.96;95195.53;5056019;28;20882;-69
2021/05/29 00:52:57;;;;;;;3.70;3.40;;;;;;;15.78;52.79;95194.63;5060515;28;20443;-69
2021/05/29 00:55:24;;;;;;;5.83;3.23;;;;;;;15.85;52.81;95189.78;5065197;28;20813;-67
2021/05/29 00:57:52;;;;;;;4.23;3.37;;;;;;;16.05;52.05;95194.84;5061088;28;20438;-68
2021/05/29 01:00:21;;;;;;;3.50;3.20;;;;;;;15.92;52.60;95195.53;5056486;28;20534;-71
2021/05/29 01:02:50;;;;;;;5.10;3.30;;;;;;;15.75;52.40;95187.25;5059851;28;20541;-68
2021/05/29 01:05:19;;;;;;;4.60;3.30;;;;;;;15.73;53.07;95189.41;5064468;28;20443;-68
2021/05/29 01:07:48;;;;;;;3.77;3.40;;;;;;;15.64;53.18;95193.69;5050952;28;20438;-68
2021/05/29 01:10:16;;;;;;;4.40;3.53;;;;;;;15.68;52.79;95190.22;5050786;28;20482;-67
2021/05/29 01:12:44;;;;;;;3.90;2.97;;;;;;;15.64;53.14;95193.69;5062997;28;20511;-67
2021/05/29 01:15:11;;;;;;;4.53;3.00;;;;;;;15.66;53.36;95165.94;5069989;28;20445;-69
2021/05/29 01:17:38;;;;;;;4.10;3.40;;;;;;;15.27;53.91;95184.50;5070383;28;20452;-67
2021/05/29 01:20:08;;;;;;;4.27;3.07;;;;;;;15.39;53.55;95185.97;5053556;28;20451;-68
2021/05/29 01:22:37;;;;;;;4.13;3.23;;;;;;;15.35;53.83;95190.22;5050434;28;20442;-67
2021/05/29 01:25:10;;;;;;;3.87;3.20;;;;;;;15.12;53.84;95179.34;5051239;28;20443;-69
2021/05/29 01:27:37;;;;;;;5.00;3.27;;;;;;;15.41;53.80;95178.59;5070283;28;20441;-70
2021/05/29 01:30:06;;;;;;;4.87;3.20;;;;;;;15.15;54.16;95186.72;5054733;28;20483;-67
2021/05/29 01:32:33;;;;;;;4.40;3.20;;;;;;;15.32;53.60;95173.13;5057337;28;20435;-68
2021/05/29 01:35:04;;;;;;;5.17;3.23;;;;;;;15.30;54.19;95177.88;5069865;28;20445;-69
2021/05/29 01:37:31;;;;;;;4.37;3.40;;;;;;;15.31;53.73;95183.97;5060057;28;20501;-68
2021/05/29 01:39:58;;;;;;;3.70;3.40;;;;;;;15.02;54.67;95170.72;5070055;28;20446;-67
2021/05/29 01:42:26;;;;;;;4.97;3.10;;;;;;;15.27;54.06;95168.66;5062538;28;20581;-68
2021/05/29 01:44:54;;;;;;;3.87;3.20;;;;;;;15.68;53.28;95181.50;5063619;28;20497;-68
2021/05/29 01:47:20;;;;;;;3.73;3.33;;;;;;;15.37;53.22;95183.63;5070470;28;20537;-69
2021/05/29 01:49:47;;;;;;;4.93;3.37;;;;;;;15.53;52.88;95177.16;5057511;28;20553;-70
2021/05/29 01:52:14;;;;;;;3.87;3.33;;;;;;;15.69;52.61;95169.88;5051999;28;20452;-69
2021/05/29 01:54:41;;;;;;;8.43;3.73;;;;;;;15.27;53.49;95178.44;5060341;28;20442;-69
2021/05/29 01:57:08;;;;;;;5.03;3.50;;;;;;;15.51;52.82;95174.00;5055927;28;20457;-68
2021/05/29 01:59:35;;;;;;;5.63;3.40;;;;;;;15.16;53.81;95171.66;5069332;28;20442;-67
2021/05/29 02:02:03;;;;;;;3.20;2.90;;;;;;;15.41;53.17;95178.59;5056012;28;20447;-68
2021/05/29 02:04:30;;;;;;;5.23;3.47;;;;;;;15.59;53.10;95172.63;5069367;28;20438;-69
2021/05/29 02:06:56;;;;;;;4.97;3.30;;;;;;;15.86;51.80;95180.78;5056205;28;20480;-68
2021/05/29 02:09:23;;;;;;;5.93;4.07;;;;;;;15.68;52.04;95170.94;5056907;28;20495;-68
2021/05/29 02:11:50;;;;;;;3.60;3.30;;;;;;;15.63;52.23;95171.00;5052146;28;20490;-67
2021/05/29 02:14:17;;;;;;;4.07;3.50;;;;;;;15.48;52.74;95186.97;5064129;28;20533;-68
2021/05/29 02:16:44;;;;;;;3.57;3.23;;;;;;;15.60;52.52;95168.94;5073785;28;20442;-69
2021/05/29 02:19:11;;;;;;;4.53;3.50;;;;;;;16.01;51.57;95185.91;5064446;28;20967;-69
2021/05/29 02:21:38;;;;;;;4.10;3.60;;;;;;;15.59;52.59;95183.19;5053306;28;20496;-69
2021/05/29 02:24:05;;;;;;;5.10;3.30;;;;;;;15.49;52.87;95175.38;5053436;28;20427;-69
2021/05/29 02:26:32;;;;;;;4.77;2.97;;;;;;;15.16;53.05;95183.00;5067657;28;20442;-68
2021/05/29 02:28:59;;;;;;;9.13;3.60;;;;;;;15.13;53.53;95178.28;5072987;28;20820;-69
2021/05/29 02:31:26;;;;;;;6.40;3.20;;;;;;;14.97;53.75;95183.94;5061958;28;20898;-68
2021/05/29 02:33:53;;;;;;;3.50;3.10;;;;;;;14.81;54.52;95180.66;5071265;28;20825;-70
2021/05/29 02:36:20;;;;;;;5.17;3.27;;;;;;;15.31;53.13;95190.00;5073651;28;20445;-67
2021/05/29 02:38:47;;;;;;;4.13;2.90;;;;;;;14.89;54.20;95193.22;5072853;28;20438;-68
2021/05/29 02:41:14;;;;;;;3.80;3.10;;;;;;;14.96;54.31;95193.72;5073588;28;20442;-70
2021/05/29 02:43:41;;;;;;;8.97;3.77;;;;;;;15.12;53.40;95192.56;5072853;28;20476;-68
2021/05/29 02:46:09;;;;;;;7.30;3.20;;;;;;;15.31;53.03;95194.50;5063446;28;20516;-68
2021/05/29 02:48:37;;;;;;;5.83;3.10;;;;;;;15.34;53.13;95200.03;5069398;28;20442;-68
2021/05/29 02:51:05;;;;;;;3.83;2.80;;;;;;;14.71;54.23;95195.72;5073367;28;20587;-72
2021/05/29 02:53:32;;;;;;;5.73;3.20;;;;;;;14.89;54.22;95187.97;5059130;28;20474;-68
2021/05/29 02:56:00;;;;;;;3.43;2.87;;;;;;;14.91;54.03;95196.38;5073533;28;20484;-69
2021/05/29 02:58:27;;;;;;;3.90;3.27;;;;;;;14.88;54.01;95191.66;5073253;28;20438;-69
2021/05/29 03:00:55;;;;;;;5.07;3.20;;;;;;;15.25;53.39;95201.69;5070402;28;20533;-71
2021/05/29 03:03:22;;;;;;;6.17;2.80;;;;;;;15.11;53.87;95190.97;5071870;28;20470;-68
2021/05/29 03:05:49;;;;;;;3.23;2.93;;;;;;;15.21;53.12;95204.09;5054583;28;20439;-69
2021/05/29 03:08:17;;;;;;;5.27;3.20;;;;;;;15.57;52.44;95196.66;5052160;28;20504;-69
2021/05/29 03:10:45;;;;;;;3.30;3.00;;;;;;;15.14;52.97;95194.91;5053106;28;20466;-69
2021/05/29 03:13:13;;;;;;;3.93;2.83;;;;;;;15.11;53.07;95195.44;5054355;28;20435;-68
2021/05/29 03:15:40;;;;;;;3.57;2.87;;;;;;;15.23;52.58;95201.97;5065878;28;20514;-67
2021/05/29 03:18:08;;;;;;;5.20;2.90;;;;;;;15.09;52.53;95193.09;5068060;28;20503;-69
2021/05/29 03:20:36;;;;;;;4.57;2.90;;;;;;;15.25;52.89;95202.47;5066196;28;20433;-69
2021/05/29 03:23:04;;;;;;;3.30;3.00;;;;;;;15.15;53.29;95192.00;5065654;28;20905;-68
2021/05/29 03:25:31;;;;;;;2.93;2.57;;;;;;;15.27;53.09;95211.97;5067199;28;20450;-68
2021/05/29 03:28:01;;;;;;;5.27;2.97;;;;;;;15.35;52.85;95212.16;5064161;28;20449;-69
2021/05/29 03:30:29;;;;;;;3.37;2.80;;;;;;;15.24;52.69;95211.44;5052106;28;20467;-68
2021/05/29 03:32:56;;;;;;;5.07;3.13;;;;;;;15.36;52.01;95205.03;5041773;28;20452;-68
2021/05/29 03:35:24;;;;;;;3.87;2.50;;;;;;;15.10;52.53;95178.84;5045160;28;20956;-67
2021/05/29 03:37:51;;;;;;;4.37;3.20;;;;;;;15.18;52.54;95204.63;5044770;28;20444;-66
2021/05/29 03:40:18;;;;;;;2.67;2.37;;;;;;;15.21;53.05;95204.09;5051478;28;20534;-66
2021/05/29 03:42:46;;;;;;;3.30;2.90;;;;;;;15.43;52.68;95202.88;5052447;28;20445;-67
2021/05/29 03:45:15;;;;;;;4.30;2.70;;;;;;;15.36;52.49;95202.38;5037825;28;20836;-67
2021/05/29 03:47:44;;;;;;;3.60;2.70;;;;;;;15.29;52.25;95186.09;5052473;28;20462;-67
2021/05/29 03:50:13;;;;;;;3.33;2.70;;;;;;;15.42;51.90;95196.03;5037571;28;20482;-67
2021/05/29 03:52:41;;;;;;;5.23;2.73;;;;;;;15.15;52.81;95194.63;5044027;28;20444;-68
2021/05/29 03:55:11;;;;;;;4.63;2.80;;;;;;;15.40;51.99;95192.84;5029995;28;20444;-67
2021/05/29 03:57:38;;;;;;;12.37;3.00;;;;;;;15.44;52.46;95193.91;5030943;28;20444;-67
2021/05/29 04:00:07;;;;;;;5.03;2.87;;;;;;;15.19;52.45;95197.50;5044961;28;20447;-67
2021/05/29 04:02:45;;;;;;;3.07;2.60;;;;;;;15.37;52.02;95198.66;5044402;28;20535;-69
2021/05/29 04:05:14;;;;;;;4.37;3.07;;;;;;;15.48;52.51;95200.19;5038342;28;20482;-67
2021/05/29 04:07:42;;;;;;;5.63;2.87;;;;;;;15.40;52.26;95209.47;5032249;28;20439;-66
2021/05/29 04:10:11;;;;;;;3.07;2.77;;;;;;;15.63;52.22;95208.78;5031721;28;20862;-67
2021/05/29 04:12:39;;;;;;;3.23;2.50;;;;;;;15.58;52.37;95216.75;5042879;28;20509;-68
2021/05/29 04:15:09;;;;;;;3.57;3.10;;;;;;;15.86;51.50;95208.00;5047261;28;20440;-67
2021/05/29 04:17:36;;;;;;;3.50;2.50;;;;;;;15.92;51.23;95208.75;5033874;28;20440;-68
2021/05/29 04:20:05;;;;;;;4.10;2.77;;;;;;;15.87;51.75;95200.88;5048657;28;20966;-68
2021/05/29 04:22:33;;;;;;;3.00;2.67;;;;;;;15.83;51.37;95207.78;5038873;28;20443;-68
2021/05/29 04:25:00;;;;;;;2.43;2.23;;;;;;;16.05;50.57;95205.44;5050703;28;20446;-69
2021/05/29 04:27:27;;;;;;;5.73;2.70;;;;;;;15.97;50.71;95200.75;5047989;28;20509;-68
2021/05/29 04:29:54;;;;;;;3.20;2.80;;;;;;;15.88;51.05;95200.59;5066187;28;20462;-68
2021/05/29 04:32:21;;;;;;;4.50;2.83;;;;;;;15.75;51.46;95211.03;5064843;28;20505;-69
2021/05/29 04:34:48;;;;;;;4.87;2.43;;;;;;;15.89;51.65;95202.16;5062227;28;20542;-68
2021/05/29 04:37:16;;;;;;;4.70;2.70;;;;;;;15.58;51.78;95211.47;5067478;28;20451;-68
2021/05/29 04:39:44;;;;;;;6.20;2.60;;;;;;;15.76;51.45;95199.41;5071509;28;20446;-69
2021/05/29 04:42:12;;;;;;;5.57;3.20;;;;;;;15.81;51.46;95199.34;5066778;28;20435;-68
2021/05/29 04:44:39;;;;;;;4.83;2.87;;;;;;;15.93;51.19;95205.03;5062531;28;20963;-66
2021/05/29 04:47:06;;;;;;;13.27;3.57;;;;;;;16.20;52.90;95202.63;5065226;28;20868;-66
2021/05/29 04:49:33;;;;;;;3.50;3.20;;;;;;;15.77;51.87;95203.59;5050655;28;20456;-69
2021/05/29 04:52:02;;;;;;;4.03;2.93;;;;;;;15.56;51.39;95205.69;5051724;28;20528;-68
2021/05/29 04:54:30;;;;;;;3.37;3.07;;;;;;;15.82;51.57;95198.28;5069764;28;20446;-67
2021/05/29 04:56:57;;;;;;;3.40;3.10;;;;;;;15.86;50.94;95197.44;5070732;28;20442;-68
2021/05/29 04:59:24;;;;;;;5.47;3.20;;;;;;;15.83;51.46;95203.28;5069314;28;21051;-67
2021/05/29 05:01:51;;;;;;;4.60;2.63;;;;;;;15.89;51.73;95201.38;5070947;28;20442;-67
2021/05/29 05:04:18;;;;;;;5.63;2.60;;;;;;;16.22;51.21;95195.19;5069836;28;20438;-69
2021/05/29 05:06:45;;;;;;;3.63;3.17;;;;;;;15.94;50.76;95188.09;5051674;28;20439;-67
2021/05/29 05:09:12;;;;;;;3.07;2.77;;;;;;;16.36;50.02;95205.84;5061632;28;20442;-69
2021/05/29 05:11:38;;;;;;;8.20;3.13;;;;;;;16.11;51.13;95205.06;5056593;28;20481;-67
2021/05/29 05:14:06;;;;;;;4.00;3.10;;;;;;;15.80;50.97;95214.41;5070027;28;20800;-67
2021/05/29 05:16:33;;;;;;;4.33;3.07;;;;;;;15.92;50.99;95214.81;5070267;28;20507;-68
2021/05/29 05:19:00;;;;;;;4.13;3.00;;;;;;;16.20;50.59;95213.19;5070061;28;20878;-69
2021/05/29 05:21:27;;;;;;;3.53;2.83;;;;;;;16.20;50.58;95206.03;5056853;28;20431;-67
2021/05/29 05:23:56;;;;;;;4.57;3.10;;;;;;;16.30;50.70;95207.78;5050234;28;20493;-68
2021/05/29 05:26:23;;;;;;;3.20;2.90;;;;;;;16.56;50.04;95209.06;5063301;28;20442;-68
2021/05/29 05:28:50;;;;;;;6.63;2.60;;;;;;;16.36;49.85;95206.66;5069958;28;21095;-68
2021/05/29 05:31:18;;;;;;;3.50;2.80;;;;;;;16.32;50.04;95199.56;5070329;28;20474;-67
2021/05/29 05:33:47;;;;;;;7.23;3.13;;;;;;;16.77;49.38;95207.72;5055715;28;20511;-67
2021/05/29 05:36:14;;;;;;;8.57;3.30;;;;;;;16.52;49.81;95209.91;5060895;28;20478;-67
2021/05/29 05:38:45;;;;;;;2.97;2.70;;;;;;;16.88;50.05;95197.75;5068905;28;20465;-68
2021/05/29 05:41:12;;;;;;;9.20;2.87;;;;;;;16.90;49.27;95211.50;5069907;28;20507;-69
2021/05/29 05:43:39;;;;;;;3.43;2.90;;;;;;;16.83;48.83;95211.06;5065710;28;20469;-68
2021/05/29 05:46:10;;;;;;;3.30;3.00;;;;;;;16.79;48.92;95213.50;5059267;28;20789;-67
2021/05/29 05:48:37;;;;;;;2.97;2.50;;;;;;;16.95;48.87;95220.16;5055215;28;20443;-67
2021/05/29 05:51:05;;;;;;;4.10;2.97;;;;;;;16.63;48.92;95217.44;5061381;28;20894;-69
2021/05/29 05:53:32;;;;;;;3.77;2.63;;;;;;;17.14;48.94;95206.91;5050451;28;20451;-67
2021/05/29 05:56:03;;;;;;;5.37;2.40;;;;;;;17.46;48.00;95219.41;5070101;28;20438;-68
2021/05/29 05:58:32;;;;;;;3.93;2.50;;;;;;;17.11;48.05;95216.22;5069358;28;20446;-67
2021/05/29 06:01:00;;;;;;;3.87;2.90;;;;;;;17.17;47.66;95211.63;5056981;28;20970;-68
2021/05/29 06:03:27;;;;;;;3.73;2.50;;;;;;;17.11;48.36;95218.88;5056909;28;20454;-67
2021/05/29 06:05:55;;;;;;;3.67;2.60;;;;;;;17.22;47.20;95188.50;5050128;28;20458;-67
2021/05/29 06:08:22;;;;;;;3.83;2.70;;;;;;;17.59;47.63;95208.09;5063595;28;20924;-68
2021/05/29 06:10:50;;;;;;;2.60;2.40;;;;;;;17.60;46.96;95209.63;5060260;28;20434;-69
2021/05/29 06:21:23;;;;;;;4.93;2.50;;;;;;;18.17;46.98;95217.84;5063472;28;20495;-67
2021/05/29 06:23:51;;;;;;;4.30;2.50;;;;;;;17.94;46.89;95204.78;5055519;28;20445;-68
2021/05/29 06:26:19;;;;;;;4.60;2.50;;;;;;;18.10;45.53;95208.75;5070327;28;20951;-68
2021/05/29 06:28:46;;;;;;;6.07;2.67;;;;;;;18.04;45.38;95200.09;5049467;28;21069;-68
2021/05/29 06:31:13;;;;;;;5.17;2.37;;;;;;;18.13;46.35;95202.84;5060316;28;20437;-67
2021/05/29 06:33:40;;;;;;;4.50;2.40;;;;;;;17.99;45.94;95212.66;5066900;28;20948;-69
2021/05/29 06:36:08;;;;;;;4.30;2.63;;;;;;;18.17;46.64;95198.53;5058210;28;20438;-69
2021/05/29 06:38:36;;;;;;;5.53;2.47;;;;;;;17.72;46.19;95204.66;5068962;28;20441;-67
2021/05/29 06:41:03;;;;;;;4.30;2.37;;;;;;;18.15;46.30;95190.88;5069948;28;20442;-69
2021/05/29 06:43:30;;;;;;;4.93;2.70;;;;;;;17.97;46.29;95193.59;5055055;28;20474;-69
2021/05/29 06:45:57;;;;;;;5.10;2.67;;;;;;;17.89;46.11;95183.66;5060921;28;20446;-68
2021/05/29 06:48:25;;;;;;;5.13;2.47;;;;;;;18.32;45.51;95184.94;5063806;28;20817;-68
2021/05/29 06:50:54;;;;;;;6.73;2.73;;;;;;;18.72;45.68;95178.81;5069684;28;20438;-68
2021/05/29 06:53:25;;;;;;;4.53;2.37;;;;;;;18.23;44.96;95180.66;5069016;28;20863;-69
2021/05/29 06:58:56;;;;;;;6.10;2.87;;;;;;;18.20;45.50;95182.00;5063994;28;20434;-70
2021/05/29 07:01:25;;;;;;;7.83;2.40;;;;;;;18.31;44.86;95183.38;5067087;28;21284;-69
2021/05/29 07:03:54;;;;;;;6.97;2.97;;;;;;;18.15;45.63;95168.84;5062099;28;20889;-69
2021/05/29 07:06:22;;;;;;;3.30;2.40;;;;;;;18.27;45.40;95171.78;5065003;28;20441;-67
2021/05/29 07:08:50;;;;;;;4.00;2.90;;;;;;;18.75;44.69;95172.13;5061855;28;20453;-68
2021/05/29 07:11:18;;;;;;;3.77;2.33;;;;;;;18.87;44.03;95170.50;5059655;28;20441;-68
2021/05/29 07:13:46;;;;;;;5.37;2.50;;;;;;;19.28;44.84;95169.56;5062459;28;20449;-67
2021/05/29 07:16:13;;;;;;;3.23;2.50;;;;;;;19.18;44.22;95171.38;5062978;28;20822;-68
2021/05/29 07:18:45;;;;;;;3.23;2.50;;;;;;;18.70;44.42;95180.97;5055202;28;20955;-67
2021/05/29 07:21:14;;;;;;;4.13;2.00;;;;;;;18.71;45.11;95176.47;5056540;28;20435;-67
2021/05/29 07:23:41;;;;;;;6.47;2.60;;;;;;;18.14;45.21;95172.56;5068155;28;20483;-66
2021/05/29 07:26:08;;;;;;;5.00;2.40;;;;;;;18.64;44.58;95184.03;5065418;28;20478;-69
2021/05/29 07:28:34;;;;;;;5.33;2.50;;;;;;;18.95;44.13;95177.78;5058791;28;20481;-67
2021/05/29 07:31:02;;;;;;;8.10;2.67;;;;;;;19.26;45.79;95171.75;5073048;28;20434;-69
2021/05/29 07:33:29;;;;;;;3.93;2.40;;;;;;;19.62;44.76;95164.47;5065216;28;20467;-67
2021/05/29 07:35:58;;;;;;;10.13;2.93;;;;;;;19.49;43.53;95162.72;5072317;28;20470;-69
2021/05/29 07:38:25;;;;;;;3.70;2.27;;;;;;;19.59;44.09;95160.56;5069784;28;20477;-74
2021/05/29 07:40:52;;;;;;;4.63;2.50;;;;;;;19.26;43.57;95164.56;5061578;28;20515;-68
2021/05/29 07:43:19;;;;;;;3.40;2.07;;;;;;;19.54;43.76;95162.56;5072153;28;20446;-72
2021/05/29 07:45:46;;;;;;;4.57;2.20;;;;;;;19.18;44.44;95150.13;5064327;28;20508;-70
2021/05/29 07:48:13;;;;;;;3.33;1.93;;;;;;;19.48;44.12;95148.63;5060622;28;20565;-69
2021/05/29 07:53:35;;;;;;;167.17;124.77;;;;;;;19.60;43.53;95161.34;5065382;28;20486;-71
2021/05/29 07:56:05;;;;;;;25.43;22.73;;;;;;;19.71;42.79;95144.03;5060472;28;20457;-71
2021/05/29 07:58:35;;;;;;;5.20;2.93;;;;;;;19.65;42.81;95158.56;5056668;28;21210;-68
2021/05/29 08:01:02;;;;;;;4.80;2.13;;;;;;;19.85;41.29;95147.41;5065534;28;20811;-71
2021/05/29 08:03:29;;;;;;;2.97;2.30;;;;;;;19.82;41.29;95137.34;5064741;28;20442;-66
2021/05/29 08:05:57;;;;;;;4.33;1.97;;;;;;;19.56;41.93;95160.41;5070786;28;20456;-72
2021/05/29 08:08:24;;;;;;;11.83;9.07;;;;;;;19.85;41.53;95152.72;5055966;28;20438;-66
2021/05/29 08:10:55;;;;;;;66.37;57.63;;;;;;;20.20;41.11;95149.09;5060147;28;20462;-69
2021/05/29 08:13:23;;;;;;;2.93;1.97;;;;;;;20.39;41.23;95149.63;5053635;28;20477;-64
2021/05/29 08:15:50;;;;;;;4.63;2.00;;;;;;;20.53;40.88;95142.28;5060111;28;20465;-65
2021/05/29 08:18:19;;;;;;;7.03;2.17;;;;;;;20.78;41.93;95141.50;5066626;28;20473;-66
2021/05/29 08:20:47;;;;;;;223.13;193.50;;;;;;;20.59;40.80;95132.28;5063174;28;20445;-64
2021/05/29 08:23:15;;;;;;;39.20;35.17;;;;;;;20.55;41.07;95134.78;5064652;28;20556;-65
2021/05/29 08:25:42;;;;;;;4.70;2.93;;;;;;;20.17;41.56;95139.88;5050946;28;20976;-67
2021/05/29 08:28:09;;;;;;;4.00;2.20;;;;;;;20.50;42.20;95116.28;5063811;28;20478;-66
2021/05/29 08:30:36;;;;;;;6.77;4.53;;;;;;;20.01;40.68;95129.94;5070705;28;20434;-67
2021/05/29 08:33:05;;;;;;;25.23;21.30;;;;;;;20.21;41.29;95133.94;5067626;28;21056;-67
2021/05/29 08:35:33;;;;;;;3.87;2.10;;;;;;;20.90;40.38;95124.91;5064359;28;20438;-67
2021/05/29 08:38:00;;;;;;;8.70;2.43;;;;;;;21.23;39.67;95122.56;5070502;28;20960;-67
2021/05/29 08:40:27;;;;;;;4.27;2.00;;;;;;;20.38;40.16;95118.78;5055702;28;20425;-67
2021/05/29 08:42:54;;;;;;;2.97;1.90;;;;;;;20.84;40.32;95126.94;5068795;28;20766;-67
2021/05/29 08:45:21;;;;;;;3.03;1.73;;;;;;;20.92;39.20;95126.19;5066780;28;21083;-65
2021/05/29 08:47:48;;;;;;;8.30;2.60;;;;;;;21.15;39.42;95111.59;5062556;28;20537;-66
2021/05/29 08:50:16;;;;;;;7.60;2.33;;;;;;;21.51;38.93;95118.44;5064579;28;20453;-67
2021/05/29 08:52:48;;;;;;;9.67;1.97;;;;;;;21.52;38.33;95114.66;5060575;28;20487;-67
2021/05/29 08:55:16;;;;;;;12.03;1.90;;;;;;;21.71;38.66;95107.06;5065387;28;20196;-68
2021/05/29 08:57:46;;;;;;;2.10;1.70;;;;;;;22.08;39.04;95106.28;5070344;28;20215;-67
2021/05/29 09:00:33;;;;;;;20.60;11.43;;;;;;;22.11;37.48;95100.31;5065052;28;20441;-65
2021/05/29 09:03:04;;;;;;;5.90;3.43;;;;;;;22.04;39.10;95098.16;5068903;28;20199;-63
2021/05/29 09:05:40;;;;;;;12.33;2.00;;;;;;;21.50;36.84;95106.19;5060599;28;20203;-69
2021/05/29 09:08:10;;;;;;;7.63;2.37;;;;;;;22.23;35.87;95100.41;5049386;28;20457;-65
2021/05/29 09:10:39;;;;;;;2.97;1.67;;;;;;;22.22;36.79;95096.19;5059134;28;20638;-67
2021/05/29 09:13:18;;;;;;;2.57;1.60;;;;;;;21.74;35.01;95101.09;5068237;28;20218;-67
2021/05/29 09:15:57;;;;;;;2.40;1.53;;;;;;;21.53;36.63;95095.66;5067526;28;20200;-67
2021/05/29 09:18:30;;;;;;;2.70;1.67;;;;;;;21.85;36.17;95087.13;5059102;28;20291;-65
2021/05/29 09:21:25;;;;;;;7.70;2.20;;;;;;;21.66;36.37;95084.00;5064388;28;20446;-67
2021/05/29 09:23:52;;;;;;;3.00;1.50;;;;;;;21.67;36.11;95084.81;5063024;28;20274;-67
2021/05/29 09:26:22;;;;;;;10.60;2.10;;;;;;;21.62;35.23;95085.00;5060900;28;20191;-66
2021/05/29 09:28:51;;;;;;;5.63;1.70;;;;;;;21.85;34.74;95078.31;5064806;28;20231;-67
2021/05/29 09:31:20;;;;;;;5.93;1.90;;;;;;;22.15;35.73;95069.22;5067292;28;20430;-71
2021/05/29 09:33:48;;;;;;;5.33;2.00;;;;;;;22.26;35.55;95067.75;5052056;28;20220;-72
2021/05/29 09:36:16;;;;;;;2.77;1.60;;;;;;;22.33;35.24;95076.03;5060034;28;20223;-68
2021/05/29 09:38:46;;;;;;;5.73;2.13;;;;;;;21.86;37.14;95071.91;5068079;28;20187;-72
2021/05/29 09:41:32;;;;;;;6.77;2.20;;;;;;;22.18;36.53;95065.91;5069681;28;20310;-73
2021/05/29 09:44:05;;;;;;;3.27;1.57;;;;;;;21.99;35.57;95068.19;5068902;28;20257;-71
2021/05/29 09:46:58;;;;;;;5.97;1.73;;;;;;;22.71;36.12;95068.69;5056080;28;20291;-75
2021/05/29 09:49:47;;;;;;;9.47;1.60;;;;;;;22.30;34.65;95071.31;5059050;28;20214;-76
2021/05/29 09:52:30;;;;;;;2.80;1.50;;;;;;;22.48;35.07;95064.75;5055116;28;20221;-73
2021/05/29 09:55:03;;;;;;;10.10;2.30;;;;;;;22.79;35.24;95062.47;5068611;28;20192;-73
2021/05/29 09:57:31;;;;;;;5.77;1.83;;;;;;;23.24;35.32;95056.41;5051512;28;20194;-74
2021/05/29 10:00:05;;;;;;;4.40;1.77;;;;;;;23.69;34.98;95051.81;5066422;28;20650;-72
2021/05/29 10:02:33;;;;;;;4.50;1.70;;;;;;;23.32;33.71;95053.66;5067032;28;20664;-70
2021/05/29 10:05:00;;;;;;;4.00;1.50;;;;;;;22.68;32.77;95045.28;5063533;28;20188;-71
2021/05/29 10:07:40;;;;;;;2.40;1.40;;;;;;;22.40;33.75;95049.56;5059359;28;20717;-71
2021/05/29 10:10:08;;;;;;;2.20;1.60;;;;;;;22.25;34.33;95046.69;5049697;28;20267;-71
2021/05/29 10:12:35;;;;;;;2.13;1.70;;;;;;;22.37;34.46;95044.88;5059826;28;20231;-70
2021/05/29 10:15:03;;;;;;;2.93;1.60;;;;;;;22.50;34.12;95049.16;5068360;28;20373;-70
2021/05/29 10:17:30;;;;;;;3.33;1.63;;;;;;;22.17;34.26;95035.75;5070099;28;20278;-69
2021/05/29 10:19:58;;;;;;;6.30;1.60;;;;;;;22.56;34.39;95047.91;5067138;28;20194;-72
2021/05/29 10:22:25;;;;;;;6.43;1.50;;;;;;;22.61;34.94;95034.34;5049533;28;20641;-71
2021/05/29 10:24:53;;;;;;;1.97;1.07;;;;;;;22.75;33.60;95034.09;5047572;28;20211;-71
2021/05/29 10:27:25;;;;;;;7.83;1.67;;;;;;;22.89;33.14;95035.38;5048934;28;20200;-71
2021/05/29 10:29:58;;;;;;;2.07;1.50;;;;;;;22.91;32.47;95038.50;5048539;28;20240;-71
2021/05/29 10:32:27;;;;;;;4.67;1.47;;;;;;;23.78;33.83;95039.88;5049856;28;20216;-70
2021/05/29 10:35:11;;;;;;;3.80;1.53;;;;;;;23.14;32.48;95047.69;5052429;28;20196;-69
2021/05/29 10:37:53;;;;;;;5.90;2.37;;;;;;;24.13;34.49;95028.75;5063249;28;20307;-70
2021/05/29 10:40:20;;;;;;;2.90;1.40;;;;;;;24.38;33.30;95027.59;5072917;28;20256;-69
2021/05/29 10:43:10;;;;;;;3.53;1.80;;;;;;;23.78;31.73;95039.88;5061982;28;20208;-71
2021/05/29 10:45:57;;;;;;;4.77;1.53;;;;;;;24.39;31.60;95035.28;5057729;28;20300;-71
2021/05/29 10:48:26;;;;;;;5.00;1.70;;;;;;;24.43;30.68;95028.16;5071970;28;20207;-71
2021/05/29 10:53:34;;;;;;;4.43;1.67;;;;;;;24.20;31.71;95035.09;5066460;28;20752;-70
2021/05/29 10:56:29;;;;;;;4.87;1.50;;;;;;;24.23;31.61;95045.16;5064921;28;20193;-69
2021/05/29 11:01:50;;;;;;;2.33;1.77;;;;;;;24.81;32.89;95030.38;5064552;28;20199;-70
2021/05/29 11:04:18;;;;;;;6.23;1.70;;;;;;;25.00;32.08;95033.97;5070926;28;20192;-69
2021/05/29 11:06:48;;;;;;;1.90;1.60;;;;;;;25.08;30.93;95033.06;5069200;28;20584;-70
2021/05/29 11:09:17;;;;;;;2.10;1.27;;;;;;;25.30;30.35;95033.59;5067292;28;20188;-70
2021/05/29 11:14:27;;;;;;;2.93;1.70;;;;;;;24.97;30.13;95031.97;5062491;28;20587;-71
2021/05/29 11:16:54;;;;;;;4.20;1.50;;;;;;;25.06;31.33;95024.56;5072102;28;20210;-70
2021/05/29 11:19:22;;;;;;;2.60;1.40;;;;;;;24.89;29.39;95024.88;5071633;28;20184;-70
2021/05/29 11:22:08;;;;;;;2.80;1.30;;;;;;;23.93;30.50;95025.84;5068063;28;20194;-70
2021/05/29 11:24:48;;;;;;;2.37;1.30;;;;;;;24.74;30.05;95019.47;5055076;28;20205;-68
2021/05/29 11:27:24;;;;;;;5.33;1.70;;;;;;;25.17;30.05;95014.13;5066270;28;20196;-70
2021/05/29 11:30:02;;;;;;;2.63;2.07;;;;;;;25.68;29.95;95012.34;5059553;28;20698;-70
2021/05/29 11:35:32;;;;;;;1.47;1.37;;;;;;;25.87;29.91;95013.22;5059374;28;20286;-69
2021/05/29 11:38:09;;;;;;;7.53;1.60;;;;;;;26.37;29.88;95008.97;5072018;28;20202;-69
2021/05/29 11:40:54;;;;;;;2.67;1.60;;;;;;;26.47;29.61;95011.09;5072004;28;20208;-69
2021/05/29 11:43:36;;;;;;;4.30;1.30;;;;;;;26.10;28.32;95007.97;5056740;28;20196;-70
2021/05/29 11:46:14;;;;;;;3.23;1.20;;;;;;;25.00;29.30;95003.69;5072327;28;20677;-70
2021/05/29 11:48:58;;;;;;;3.00;1.07;;;;;;;25.59;28.81;94998.31;5071793;28;20222;-69
2021/05/29 11:51:27;;;;;;;4.77;1.60;;;;;;;25.16;27.97;94995.69;5060855;28;20205;-70
2021/05/29 11:53:57;;;;;;;3.53;1.40;;;;;;;25.32;28.04;94991.09;5065440;28;20250;-69
2021/05/29 11:56:45;;;;;;;5.17;1.53;;;;;;;25.13;28.03;94985.66;5062574;28;20192;-70
2021/05/29 11:59:13;;;;;;;3.93;1.30;;;;;;;25.59;30.15;94987.59;5057123;28;20198;-70
2021/05/29 12:01:44;;;;;;;2.37;1.43;;;;;;;26.10;29.63;94991.88;5071992;28;20195;-70
2021/05/29 12:04:13;;;;;;;2.70;1.33;;;;;;;26.36;28.83;94983.22;5071065;28;20245;-70
2021/05/29 12:06:49;;;;;;;4.10;1.37;;;;;;;26.39;27.73;94971.75;5057497;28;20195;-70